Time;durP1;ratioP1;P1;durP2;ratioP2;P2;SDS_P1;SDS_P2;PMS_P1;PMS_P2;Temp;Humidity;BMP_temperature;BMP_pressure;BME280_temperature;BME280_humidity;BME280_pressure;Samples;Min_cycle;Max_cycle;Signal;HPM_P1;HPM_P2
2023/09/06 00:01:24;;;;;;;5.90;4.67;;;14.70;99.90;;;;;;5000159;28;20305;-85
2023/09/06 00:03:49;;;;;;;6.80;4.33;;;14.70;99.90;;;;;;5002562;28;20215;-84
2023/09/06 00:06:16;;;;;;;8.17;4.50;;;14.70;99.90;;;;;;5005431;28;20267;-88
2023/09/06 00:08:41;;;;;;;8.73;4.70;;;14.70;99.90;;;;;;5002276;28;20237;-87
2023/09/06 00:11:07;;;;;;;6.70;4.17;;;14.60;99.90;;;;;;5015426;28;20445;-85
2023/09/06 00:13:34;;;;;;;6.60;5.10;;;14.70;99.90;;;;;;4999107;28;20206;-84
2023/09/06 00:16:03;;;;;;;5.17;4.53;;;14.70;99.90;;;;;;5001776;28;20186;-85
2023/09/06 00:18:30;;;;;;;7.73;4.53;;;14.70;99.90;;;;;;5000468;28;20566;-87
2023/09/06 00:20:57;;;;;;;6.47;4.67;;;14.70;99.90;;;;;;4999842;28;20483;-86
2023/09/06 00:23:24;;;;;;;6.60;4.40;;;14.60;99.90;;;;;;5001201;28;20462;-87
2023/09/06 00:25:50;;;;;;;12.03;4.50;;;14.60;99.90;;;;;;4998881;28;20433;-84
2023/09/06 00:28:19;;;;;;;7.07;5.00;;;14.60;99.90;;;;;;4998090;28;20444;-85
2023/09/06 00:30:45;;;;;;;4.50;3.77;;;14.50;99.90;;;;;;4998526;28;20190;-84
2023/09/06 00:33:11;;;;;;;9.23;5.40;;;14.40;99.90;;;;;;4997229;28;20453;-85
2023/09/06 00:35:39;;;;;;;7.80;5.13;;;14.40;99.90;;;;;;4996215;28;20556;-86
2023/09/06 00:38:07;;;;;;;5.33;4.00;;;14.30;99.90;;;;;;4997270;28;20460;-86
2023/09/06 00:40:36;;;;;;;10.83;4.90;;;14.30;99.90;;;;;;4996542;28;20477;-85
2023/09/06 00:43:03;;;;;;;8.60;5.23;;;14.20;99.90;;;;;;4995942;28;20442;-84
2023/09/06 00:45:36;;;;;;;9.90;5.07;;;14.20;99.90;;;;;;5007924;28;20457;-84
2023/09/06 00:48:04;;;;;;;6.20;4.63;;;14.20;99.90;;;;;;5001159;28;20434;-84
2023/09/06 00:50:29;;;;;;;16.23;6.80;;;14.30;99.90;;;;;;4995516;28;20541;-86
2023/09/06 00:52:56;;;;;;;7.70;4.80;;;14.20;99.90;;;;;;5004670;28;20509;-86
2023/09/06 00:55:22;;;;;;;7.43;5.20;;;14.20;99.90;;;;;;5005575;28;20233;-85
2023/09/06 00:57:48;;;;;;;12.27;5.43;;;14.10;99.90;;;;;;4998581;28;20945;-88
2023/09/06 01:00:22;;;;;;;7.90;5.40;;;14.10;99.90;;;;;;4999140;28;20457;-86
2023/09/06 01:02:48;;;;;;;8.27;4.60;;;14.10;99.90;;;;;;4998050;28;20166;-86
2023/09/06 01:05:14;;;;;;;6.33;4.50;;;14.10;99.90;;;;;;4992997;28;21282;-85
2023/09/06 01:07:43;;;;;;;8.57;5.10;;;14.10;99.90;;;;;;4991285;28;20233;-85
2023/09/06 01:10:09;;;;;;;6.40;4.63;;;14.00;99.90;;;;;;5004321;28;20445;-86
2023/09/06 01:12:35;;;;;;;5.13;4.40;;;14.00;99.90;;;;;;4991796;28;20445;-86
2023/09/06 01:15:03;;;;;;;5.40;4.60;;;13.90;99.90;;;;;;4996533;28;20289;-87
2023/09/06 01:17:31;;;;;;;6.80;5.00;;;13.90;99.90;;;;;;4998899;28;20535;-86
2023/09/06 01:20:09;;;;;;;7.60;5.77;;;13.90;99.90;;;;;;4997725;28;21153;-86
2023/09/06 01:22:41;;;;;;;7.37;5.00;;;13.80;99.90;;;;;;4992842;28;20438;-87
2023/09/06 01:25:08;;;;;;;6.60;5.50;;;13.70;99.90;;;;;;4990213;28;20446;-84
2023/09/06 01:27:34;;;;;;;5.87;4.70;;;13.70;99.90;;;;;;5010238;28;20430;-85
2023/09/06 01:29:59;;;;;;;7.90;5.13;;;13.90;99.90;;;;;;5003848;28;20425;-85
2023/09/06 01:32:27;;;;;;;7.50;5.23;;;13.70;99.90;;;;;;5013138;28;20434;-86
2023/09/06 01:34:54;;;;;;;9.73;5.77;;;13.70;99.90;;;;;;5015873;28;20229;-85
2023/09/06 01:37:21;;;;;;;10.00;5.17;;;13.70;99.90;;;;;;5005604;28;20509;-87
2023/09/06 01:39:47;;;;;;;8.53;5.10;;;13.70;99.90;;;;;;4997502;28;20514;-85
2023/09/06 01:42:12;;;;;;;6.23;4.60;;;13.70;99.90;;;;;;4996474;28;20535;-85
2023/09/06 01:44:38;;;;;;;13.50;5.00;;;13.70;99.90;;;;;;4996919;28;20209;-85
2023/09/06 01:47:03;;;;;;;10.80;5.90;;;13.70;99.90;;;;;;4996517;28;20186;-85
2023/09/06 01:49:29;;;;;;;7.10;4.90;;;13.70;99.90;;;;;;4995504;28;20186;-86
2023/09/06 01:51:57;;;;;;;6.07;4.70;;;13.70;99.90;;;;;;5006657;28;20193;-83
2023/09/06 01:54:23;;;;;;;6.13;4.87;;;13.60;99.90;;;;;;4991373;28;20190;-84
2023/09/06 01:56:49;;;;;;;7.13;5.00;;;13.60;99.90;;;;;;4995439;28;20426;-85
2023/09/06 01:59:14;;;;;;;9.87;5.43;;;13.60;99.90;;;;;;4993905;28;20535;-85
2023/09/06 02:01:40;;;;;;;8.73;4.57;;;13.60;99.90;;;;;;4991895;28;20241;-85
2023/09/06 02:04:06;;;;;;;5.73;4.70;;;13.50;99.90;;;;;;4987570;28;21956;-85
2023/09/06 02:06:31;;;;;;;8.20;5.03;;;13.50;99.90;;;;;;4993866;28;20624;-85
2023/09/06 02:08:57;;;;;;;7.03;4.93;;;13.50;99.90;;;;;;4995465;28;20651;-83
2023/09/06 02:11:24;;;;;;;6.83;4.80;;;13.40;99.90;;;;;;4997570;28;20186;-84
2023/09/06 02:13:50;;;;;;;10.40;5.43;;;13.40;99.90;;;;;;5012077;28;20205;-85
2023/09/06 02:16:17;;;;;;;7.80;4.90;;;13.40;99.90;;;;;;5002875;28;20887;-86
2023/09/06 02:18:43;;;;;;;9.20;5.05;;;13.30;99.90;;;;;;5002057;28;20255;-87
2023/09/06 02:21:09;;;;;;;7.93;4.50;;;13.20;99.90;;;;;;4997904;28;20226;-84
2023/09/06 02:23:35;;;;;;;9.83;5.57;;;13.10;99.90;;;;;;4998491;28;20266;-87
2023/09/06 02:26:00;;;;;;;8.20;4.63;;;13.20;99.90;;;;;;4996762;28;20446;-87
2023/09/06 02:28:26;;;;;;;6.20;4.83;;;13.20;99.90;;;;;;4998393;28;20507;-87
2023/09/06 02:30:52;;;;;;;8.07;4.97;;;13.20;99.90;;;;;;4999178;28;20182;-87
2023/09/06 02:33:18;;;;;;;6.90;5.40;;;13.20;99.90;;;;;;4998816;28;21215;-84
2023/09/06 02:35:44;;;;;;;8.60;5.20;;;13.10;99.90;;;;;;4993081;28;20194;-85
2023/09/06 02:38:11;;;;;;;9.98;5.43;;;13.10;99.90;;;;;;4997660;28;20446;-85
2023/09/06 02:40:37;;;;;;;8.05;5.13;;;13.00;99.90;;;;;;4994948;28;20203;-84
2023/09/06 02:43:04;;;;;;;9.00;5.93;;;12.90;99.90;;;;;;4997061;28;20198;-86
2023/09/06 02:45:36;;;;;;;9.43;5.90;;;12.90;99.90;;;;;;4993972;28;20322;-85
2023/09/06 02:48:06;;;;;;;10.98;4.70;;;12.90;99.90;;;;;;4995621;28;20159;-86
2023/09/06 02:50:36;;;;;;;6.22;4.82;;;12.90;99.90;;;;;;4995387;28;20192;-85
2023/09/06 02:53:03;;;;;;;8.68;4.72;;;13.00;99.90;;;;;;4996221;28;20769;-85
2023/09/06 02:55:35;;;;;;;6.47;4.82;;;12.90;99.90;;;;;;4996829;28;20191;-87
2023/09/06 02:58:01;;;;;;;9.35;6.05;;;12.80;99.90;;;;;;5004069;28;20190;-88
2023/09/06 03:00:29;;;;;;;7.75;5.80;;;12.80;99.90;;;;;;4999239;28;20274;-86
2023/09/06 03:03:05;;;;;;;8.73;5.72;;;12.70;99.90;;;;;;4996163;28;20177;-85
2023/09/06 03:05:34;;;;;;;9.27;5.50;;;12.60;99.90;;;;;;4999201;28;20186;-88
2023/09/06 03:08:06;;;;;;;8.90;5.32;;;12.60;99.90;;;;;;4999890;28;20182;-85
2023/09/06 03:10:33;;;;;;;6.57;4.72;;;12.60;99.90;;;;;;5001674;28;20191;-85
2023/09/06 03:12:58;;;;;;;9.43;5.80;;;12.60;99.90;;;;;;5000318;28;20186;-86
2023/09/06 03:15:28;;;;;;;7.60;5.37;;;12.60;99.90;;;;;;4998300;28;20687;-86
2023/09/06 03:17:54;;;;;;;12.68;5.75;;;12.60;99.90;;;;;;5011171;28;20187;-88
2023/09/06 03:23:00;;;;;;;6.30;5.07;;;12.60;99.90;;;;;;4998786;28;20183;-85
2023/09/06 03:25:27;;;;;;;6.72;5.50;;;12.50;99.90;;;;;;4998885;28;20179;-86
2023/09/06 03:27:59;;;;;;;9.98;5.57;;;12.50;99.90;;;;;;5002527;28;20183;-86
2023/09/06 03:30:27;;;;;;;6.60;5.22;;;12.50;99.90;;;;;;4997991;28;20637;-84
2023/09/06 03:32:53;;;;;;;7.15;5.55;;;12.50;99.90;;;;;;4997484;28;20186;-85
2023/09/06 03:35:22;;;;;;;8.25;5.78;;;12.40;99.90;;;;;;5001132;28;21086;-86
2023/09/06 03:37:47;;;;;;;10.23;5.40;;;12.50;99.90;;;;;;5001170;28;20195;-87
2023/09/06 03:40:25;;;;;;;9.80;5.27;;;12.40;99.90;;;;;;4999362;28;20281;-85
2023/09/06 03:42:51;;;;;;;7.70;5.95;;;12.40;99.90;;;;;;5000637;28;20182;-87
2023/09/06 03:45:21;;;;;;;7.65;5.07;;;12.40;99.90;;;;;;4996643;28;20202;-84
2023/09/06 03:47:47;;;;;;;8.07;5.40;;;12.30;99.90;;;;;;4996084;28;20230;-86
2023/09/06 03:50:12;;;;;;;9.73;6.03;;;12.30;99.90;;;;;;4997050;28;20196;-83
2023/09/06 03:52:39;;;;;;;7.80;5.30;;;12.30;99.90;;;;;;4997628;28;20183;-85
2023/09/06 03:55:05;;;;;;;8.82;6.20;;;12.20;99.90;;;;;;4996790;28;20289;-86
2023/09/06 03:57:31;;;;;;;7.85;5.00;;;12.20;99.90;;;;;;5013520;28;20183;-85
2023/09/06 03:59:58;;;;;;;10.83;5.63;;;12.20;99.90;;;;;;4997404;28;20558;-84
2023/09/06 04:02:27;;;;;;;7.93;5.45;;;12.10;99.90;;;;;;4996192;28;20229;-85
2023/09/06 04:04:52;;;;;;;10.80;6.65;;;12.10;99.90;;;;;;4999259;28;20315;-84
2023/09/06 04:07:18;;;;;;;8.50;5.43;;;12.50;99.90;;;;;;4996821;28;20277;-85
2023/09/06 04:09:43;;;;;;;8.30;6.20;;;12.10;99.90;;;;;;4997020;28;20194;-83
2023/09/06 04:12:09;;;;;;;10.53;5.73;;;12.10;99.90;;;;;;5001273;28;20213;-85
2023/09/06 04:14:35;;;;;;;9.00;5.40;;;12.00;99.90;;;;;;4996917;28;21108;-82
2023/09/06 04:17:02;;;;;;;5.88;5.28;;;11.90;99.90;;;;;;4999319;28;20201;-86
2023/09/06 04:19:27;;;;;;;8.65;5.55;;;11.90;99.90;;;;;;4997936;28;20274;-84
2023/09/06 04:21:55;;;;;;;9.77;5.80;;;11.90;99.90;;;;;;4994582;28;20293;-84
2023/09/06 04:24:21;;;;;;;9.70;6.47;;;12.00;99.90;;;;;;5009344;28;20482;-85
2023/09/06 04:26:47;;;;;;;12.43;6.47;;;12.00;99.90;;;;;;4997875;28;20179;-84
2023/09/06 04:29:13;;;;;;;8.38;5.95;;;12.00;99.90;;;;;;4999407;28;20194;-85
2023/09/06 04:31:41;;;;;;;18.03;6.97;;;12.00;99.90;;;;;;4993699;28;20930;-82
2023/09/06 04:34:06;;;;;;;10.43;6.22;;;11.90;99.90;;;;;;4994440;28;20202;-86
2023/09/06 04:36:36;;;;;;;8.97;6.50;;;12.00;99.90;;;;;;4997962;28;20202;-85
2023/09/06 04:39:02;;;;;;;13.45;7.78;;;12.00;99.90;;;;;;5001917;28;20221;-84
2023/09/06 04:41:31;;;;;;;10.65;8.00;;;12.00;99.90;;;;;;5000118;28;20289;-85
2023/09/06 04:43:56;;;;;;;9.70;6.57;;;12.00;99.90;;;;;;5000401;28;20734;-83
2023/09/06 04:46:22;;;;;;;10.33;6.97;;;12.00;99.90;;;;;;5006146;28;20191;-85
2023/09/06 04:48:47;;;;;;;8.00;6.67;;;12.00;99.90;;;;;;4996864;28;20322;-83
2023/09/06 04:51:14;;;;;;;11.53;5.80;;;12.00;99.90;;;;;;4994314;28;20187;-84
2023/09/06 04:53:40;;;;;;;10.70;6.60;;;12.10;99.90;;;;;;4997442;28;20686;-84
2023/09/06 04:56:06;;;;;;;7.60;6.13;;;12.00;99.90;;;;;;4996427;28;20195;-83
2023/09/06 04:58:32;;;;;;;8.30;6.37;;;12.00;99.90;;;;;;5003649;28;20171;-79
2023/09/06 05:01:05;;;;;;;9.48;6.55;;;12.00;99.90;;;;;;5001913;28;20202;-79
2023/09/06 05:03:32;;;;;;;9.55;6.22;;;12.10;99.90;;;;;;5002894;28;21102;-80
2023/09/06 05:05:57;;;;;;;10.35;6.25;;;12.10;99.90;;;;;;4997707;28;20166;-80
2023/09/06 05:08:23;;;;;;;9.93;6.50;;;12.20;99.90;;;;;;4997188;28;20242;-79
2023/09/06 05:10:52;;;;;;;11.93;6.10;;;12.40;99.90;;;;;;5008667;28;20586;-82
2023/09/06 05:13:18;;;;;;;8.88;6.22;;;13.30;99.90;;;;;;5003359;28;20199;-82
2023/09/06 05:15:44;;;;;;;7.90;5.90;;;14.40;99.90;;;;;;5004398;28;20206;-80
2023/09/06 05:18:10;;;;;;;6.93;5.03;;;16.60;99.90;;;;;;4993420;28;20426;-81
2023/09/06 05:20:38;;;;;;;6.40;4.70;;;16.90;99.90;;;;;;4993872;28;20470;-82
2023/09/06 05:23:21;;;;;;;11.30;6.20;;;18.40;99.90;;;;;;4996911;28;21064;-80
2023/09/06 05:25:47;;;;;;;6.40;5.20;;;19.80;99.90;;;;;;4988833;28;20792;-85
2023/09/06 05:28:14;;;;;;;11.13;6.43;;;21.00;99.90;;;;;;4984452;28;20480;-85
2023/09/06 05:30:43;;;;;;;6.30;5.30;;;22.30;99.90;;;;;;4992758;28;20214;-82
2023/09/06 05:33:09;;;;;;;9.70;6.10;;;23.30;99.90;;;;;;5000204;28;20480;-85
2023/09/06 05:35:35;;;;;;;8.10;5.80;;;23.80;99.90;;;;;;5004035;28;20449;-86
2023/09/06 05:38:04;;;;;;;19.93;5.70;;;23.90;99.90;;;;;;4988882;28;20456;-85
2023/09/06 05:40:32;;;;;;;7.07;5.10;;;24.80;99.90;;;;;;4993897;28;23788;-86
2023/09/06 05:42:57;;;;;;;6.53;5.10;;;26.10;99.90;;;;;;4987891;28;20494;-87
2023/09/06 05:45:23;;;;;;;7.57;5.20;;;27.10;99.90;;;;;;4983469;28;20848;-84
2023/09/06 05:47:49;;;;;;;6.60;5.40;;;28.20;99.00;;;;;;4987001;28;20177;-84
2023/09/06 05:50:15;;;;;;;11.70;6.80;;;29.30;95.70;;;;;;4991573;28;20182;-84
2023/09/06 05:52:41;;;;;;;7.43;5.50;;;30.00;91.60;;;;;;4984413;28;20440;-82
2023/09/06 05:55:08;;;;;;;8.40;6.30;;;30.30;89.80;;;;;;4986574;28;21032;-85
2023/09/06 05:57:33;;;;;;;9.27;5.73;;;30.70;84.90;;;;;;4982250;28;20266;-84
2023/09/06 05:59:59;;;;;;;9.60;5.90;;;30.90;79.90;;;;;;4984745;28;20514;-84
2023/09/06 06:02:25;;;;;;;6.87;5.90;;;30.40;78.70;;;;;;4984556;28;20214;-85
2023/09/06 06:04:52;;;;;;;6.57;5.67;;;31.20;78.00;;;;;;4985953;28;20498;-88
2023/09/06 06:07:17;;;;;;;9.73;6.57;;;31.70;75.10;;;;;;4985538;28;20441;-84
2023/09/06 06:09:44;;;;;;;8.90;6.73;;;32.80;72.20;;;;;;4987451;28;20708;-82
2023/09/06 06:12:10;;;;;;;9.13;6.13;;;33.50;66.10;;;;;;4987599;28;22025;-85
2023/09/06 06:14:36;;;;;;;6.40;5.80;;;34.00;63.20;;;;;;4987646;28;20455;-86
2023/09/06 06:17:06;;;;;;;6.67;6.07;;;34.30;60.70;;;;;;4998800;28;20447;-85
2023/09/06 06:19:33;;;;;;;8.87;6.90;;;34.90;59.60;;;;;;4980142;28;20433;-84
2023/09/06 06:22:01;;;;;;;9.03;6.73;;;34.60;58.20;;;;;;4989413;28;20468;-86
2023/09/06 06:24:27;;;;;;;9.50;6.80;;;35.20;56.50;;;;;;4985270;28;20491;-87
2023/09/06 06:26:52;;;;;;;15.63;9.53;;;36.20;56.50;;;;;;4983500;28;20538;-87
2023/09/06 06:29:18;;;;;;;11.73;8.30;;;36.80;53.20;;;;;;4984707;28;20281;-84
2023/09/06 06:31:44;;;;;;;11.40;9.23;;;37.20;51.80;;;;;;4984193;28;20539;-86
2023/09/06 06:34:10;;;;;;;10.70;9.00;;;38.10;50.70;;;;;;4982782;28;20212;-86
2023/09/06 06:36:35;;;;;;;9.70;8.90;;;38.50;48.70;;;;;;4988735;28;20446;-84
2023/09/06 06:39:01;;;;;;;10.70;9.70;;;39.10;47.30;;;;;;4989678;28;20188;-85
2023/09/06 06:41:27;;;;;;;11.17;10.10;;;39.40;46.50;;;;;;4992180;28;20311;-85
2023/09/06 06:43:53;;;;;;;12.80;11.50;;;;;;;;;;5006238;28;20249;-82
2023/09/06 06:46:33;;;;;;;13.10;11.90;;;39.70;44.00;;;;;;4986916;28;20190;-85
2023/09/06 06:48:59;;;;;;;12.70;11.20;;;38.90;43.60;;;;;;4996238;28;20443;-84
2023/09/06 06:51:35;;;;;;;12.27;11.27;;;37.50;44.20;;;;;;4992302;28;20813;-85
2023/09/06 06:54:01;;;;;;;13.43;10.50;;;36.10;45.70;;;;;;5010903;28;20519;-85
2023/09/06 06:56:27;;;;;;;13.10;11.80;;;35.20;48.40;;;;;;5015221;28;20428;-85
2023/09/06 06:58:53;;;;;;;10.37;9.57;;;35.70;47.10;;;;;;4996500;28;20686;-88
2023/09/06 07:01:20;;;;;;;12.87;11.67;;;35.50;48.40;;;;;;4999689;28;20208;-87
2023/09/06 07:03:46;;;;;;;14.03;11.47;;;34.80;48.00;;;;;;4998016;28;20224;-88
2023/09/06 07:06:11;;;;;;;15.30;10.60;;;34.70;49.70;;;;;;5000815;28;20496;-87
2023/09/06 07:08:37;;;;;;;12.90;10.80;;;33.70;49.80;;;;;;5004909;28;20220;-85
2023/09/06 07:11:07;;;;;;;13.40;10.00;;;33.30;51.00;;;;;;4997791;28;20183;-86
2023/09/06 07:13:33;;;;;;;15.50;11.03;;;32.20;53.10;;;;;;4998715;28;20220;-81
2023/09/06 07:15:59;;;;;;;25.77;9.77;;;32.10;54.90;;;;;;4996672;28;20434;-78
2023/09/06 07:18:25;;;;;;;11.53;8.80;;;32.70;54.80;;;;;;4993455;28;20521;-80
2023/09/06 07:20:50;;;;;;;10.10;9.10;;;32.40;54.30;;;;;;4994666;28;20202;-82
2023/09/06 07:23:16;;;;;;;11.03;8.90;;;32.10;55.90;;;;;;4996897;28;20457;-78
2023/09/06 07:25:47;;;;;;;10.13;9.00;;;32.00;56.00;;;;;;5002689;28;20233;-82
2023/09/06 07:28:13;;;;;;;13.63;8.60;;;31.80;56.40;;;;;;4996774;28;20667;-81
2023/09/06 07:30:40;;;;;;;9.47;8.47;;;31.90;56.80;;;;;;4993809;28;20449;-83
2023/09/06 07:33:06;;;;;;;13.20;9.43;;;32.10;57.30;;;;;;4987160;28;20467;-77
2023/09/06 07:35:31;;;;;;;8.70;7.47;;;32.00;58.60;;;;;;5000060;28;20435;-81
2023/09/06 07:37:58;;;;;;;13.50;7.83;;;30.90;58.80;;;;;;4994447;28;20250;-81
2023/09/06 07:40:24;;;;;;;8.43;7.63;;;30.70;61.60;;;;;;4990473;28;20405;-81
2023/09/06 07:42:49;;;;;;;7.30;6.20;;;31.80;62.20;;;;;;4990761;28;20453;-81
2023/09/06 07:45:15;;;;;;;7.77;6.97;;;33.90;58.30;;;;;;4999316;28;20206;-81
2023/09/06 07:47:41;;;;;;;8.70;7.77;;;36.20;51.00;;;;;;4993355;28;20200;-82
2023/09/06 07:50:09;;;;;;;8.13;7.53;;;37.10;48.20;;;;;;4994324;28;20245;-84
2023/09/06 07:52:35;;;;;;;9.73;8.83;;;37.50;46.10;;;;;;4990428;28;20192;-81
2023/09/06 07:55:00;;;;;;;13.53;8.57;;;37.20;45.10;;;;;;4996573;28;20731;-83
2023/09/06 07:57:26;;;;;;;10.87;10.03;;;36.70;45.60;;;;;;4996368;28;20420;-76
2023/09/06 07:59:52;;;;;;;10.13;9.33;;;36.40;46.70;;;;;;5010615;28;20197;-79
2023/09/06 08:02:17;;;;;;;9.03;8.33;;;35.60;46.20;;;;;;5004589;28;20205;-87
2023/09/06 08:04:43;;;;;;;9.10;8.30;;;35.70;46.80;;;;;;5007314;28;20231;-86
2023/09/06 08:07:09;;;;;;;8.60;7.90;;;35.70;45.90;;;;;;5009862;28;20435;-85
2023/09/06 08:09:38;;;;;;;10.67;9.30;;;35.00;47.00;;;;;;5010862;28;20215;-85
2023/09/06 08:15:06;;;;;;;9.17;8.43;;;33.80;49.10;;;;;;5009983;28;20472;-87
2023/09/06 08:17:34;;;;;;;9.93;8.93;;;35.90;48.00;;;;;;5015764;28;20444;-86
2023/09/06 08:20:08;;;;;;;9.23;8.53;;;;;;;;;;5011864;28;20460;-89
2023/09/06 08:23:05;;;;;;;9.73;9.03;;;36.40;46.00;;;;;;5016273;28;20523;-90
2023/09/06 08:36:39;;;;;;;10.70;9.77;;;35.90;45.60;;;;;;4991701;28;20443;-86
2023/09/06 08:39:46;;;;;;;10.33;9.43;;;35.60;46.20;;;;;;4947935;28;20554;-86
2023/09/06 08:42:58;;;;;;;9.70;8.80;;;33.20;48.60;;;;;;4884115;29;20478;-87
2023/09/06 08:49:29;;;;;;;8.17;7.43;;;32.60;50.10;;;;;;4858582;29;20446;-86
2023/09/06 08:52:21;;;;;;;7.13;6.43;;;32.90;50.70;;;;;;4852590;29;20499;-88
2023/09/06 09:06:08;;;;;;;;;;;;;;;;;;;;;
2023/09/06 09:09:19;;;;;;;7.40;6.77;;;33.00;50.40;;;;;;5001635;28;20530;-90
2023/09/06 09:12:14;;;;;;;;;;;;;;;;;;;;;
2023/09/06 09:48:18;;;;;;;8.10;7.40;;;33.50;51.10;;;;;;5006283;28;20502;-85
2023/09/06 09:50:52;;;;;;;12.23;7.50;;;32.80;52.10;;;;;;4999437;28;20446;-88
2023/09/06 09:53:23;;;;;;;8.43;7.47;;;32.10;52.50;;;;;;4996520;28;20477;-85
2023/09/06 09:56:57;;;;;;;11.53;7.97;;;32.10;54.20;;;;;;5000769;28;20453;-88
2023/09/06 10:00:31;;;;;;;8.97;8.27;;;32.00;54.20;;;;;;5009654;28;20448;-88
2023/09/06 10:33:53;;;;;;;8.70;5.70;;;26.10;75.30;;;;;;4988714;28;20507;-83
2023/09/06 10:36:20;;;;;;;7.10;5.63;;;26.10;79.40;;;;;;5000472;28;20487;-79
2023/09/06 10:38:52;;;;;;;14.43;6.93;;;26.00;78.20;;;;;;5001255;28;20447;-80
2023/09/06 10:41:23;;;;;;;15.70;5.50;;;26.20;80.90;;;;;;4975741;28;20481;-85
2023/09/06 10:43:48;;;;;;;14.87;6.10;;;26.20;81.30;;;;;;5010378;28;20544;-84
2023/09/06 10:46:24;;;;;;;7.97;6.60;;;26.30;79.70;;;;;;5006100;28;20980;-84
2023/09/06 10:49:12;;;;;;;9.13;5.83;;;26.20;81.00;;;;;;5001967;28;20281;-79
2023/09/06 10:52:08;;;;;;;11.83;5.37;;;26.10;82.30;;;;;;5005383;28;20438;-83
2023/09/06 10:54:38;;;;;;;10.67;6.47;;;26.20;81.70;;;;;;5002843;28;20462;-81
2023/09/06 10:57:05;;;;;;;9.00;5.50;;;26.00;81.20;;;;;;4997185;28;20430;-81
2023/09/06 10:59:35;;;;;;;6.97;5.70;;;25.80;83.00;;;;;;4993191;28;20442;-84
2023/09/06 11:02:14;;;;;;;9.40;5.23;;;25.90;83.10;;;;;;4993949;28;20588;-79
2023/09/06 11:04:40;;;;;;;5.97;5.37;;;25.90;83.80;;;;;;4993357;28;20525;-82
2023/09/06 11:07:10;;;;;;;13.43;6.40;;;26.10;83.50;;;;;;4994117;28;20743;-81
2023/09/06 11:09:43;;;;;;;7.33;5.63;;;26.10;82.40;;;;;;4991912;28;20355;-78
2023/09/06 11:12:10;;;;;;;7.83;5.60;;;26.10;85.70;;;;;;4993986;28;20988;-84
2023/09/06 11:14:35;;;;;;;8.63;5.47;;;26.40;85.90;;;;;;4996034;28;20606;-82
2023/09/06 11:17:01;;;;;;;10.93;5.77;;;26.30;83.30;;;;;;5000253;28;20521;-84
2023/09/06 11:19:30;;;;;;;10.53;5.43;;;26.20;84.90;;;;;;4998963;28;20205;-81
2023/09/06 11:22:06;;;;;;;6.70;5.63;;;26.70;87.90;;;;;;5015814;28;20234;-78
2023/09/06 11:24:34;;;;;;;10.20;6.80;;;26.40;86.90;;;;;;5005573;28;20462;-84
2023/09/06 11:27:03;;;;;;;6.27;5.67;;;26.70;86.10;;;;;;5005940;28;20444;-81
2023/09/06 11:29:30;;;;;;;7.07;5.40;;;26.80;83.00;;;;;;5000490;28;20444;-80
2023/09/06 11:32:08;;;;;;;6.43;5.33;;;26.90;85.80;;;;;;4997838;28;21128;-81
2023/09/06 11:34:41;;;;;;;6.87;5.43;;;27.00;86.50;;;;;;4996928;28;20493;-83
2023/09/06 11:37:10;;;;;;;8.40;5.87;;;27.10;85.40;;;;;;4995305;28;20964;-80
2023/09/06 11:39:39;;;;;;;10.17;6.10;;;27.10;83.20;;;;;;5015370;28;20472;-77
2023/09/06 11:42:08;;;;;;;7.27;5.80;;;27.30;82.10;;;;;;5001471;28;20472;-83
2023/09/06 11:44:37;;;;;;;6.57;5.93;;;27.10;81.80;;;;;;4999458;28;21043;-85
2023/09/06 11:47:06;;;;;;;7.00;5.03;;;27.00;84.60;;;;;;5006562;28;21195;-80
2023/09/06 11:49:34;;;;;;;9.10;5.37;;;27.00;85.20;;;;;;5000720;28;20459;-80
2023/09/06 11:52:04;;;;;;;6.07;5.27;;;27.10;82.30;;;;;;4996398;28;20445;-80
2023/09/06 11:54:31;;;;;;;15.90;7.50;;;27.20;82.90;;;;;;5001578;28;20488;-79
2023/09/06 11:56:57;;;;;;;8.00;5.43;;;27.30;85.40;;;;;;4996221;28;20441;-79
2023/09/06 11:59:24;;;;;;;6.10;5.30;;;27.50;82.80;;;;;;4995118;28;20439;-80
2023/09/06 12:01:58;;;;;;;6.63;5.27;;;27.60;81.90;;;;;;4995074;28;20217;-83
2023/09/06 12:04:26;;;;;;;6.27;5.30;;;27.70;80.80;;;;;;5000962;28;21513;-82
2023/09/06 12:06:58;;;;;;;9.43;5.13;;;27.80;82.30;;;;;;4999461;28;20438;-83
2023/09/06 12:09:24;;;;;;;8.27;5.40;;;27.80;83.10;;;;;;4998848;28;20435;-79
2023/09/06 12:11:51;;;;;;;6.57;4.97;;;;;;;;;;5002151;28;20433;-82
2023/09/06 12:14:17;;;;;;;5.87;5.33;;;28.30;83.00;;;;;;5011655;28;21053;-83
2023/09/06 12:16:42;;;;;;;7.17;5.03;;;28.50;79.50;;;;;;5002492;28;20530;-78
2023/09/06 12:19:12;;;;;;;7.03;6.23;;;28.40;80.00;;;;;;4995576;28;21010;-79
2023/09/06 12:21:38;;;;;;;8.37;5.23;;;28.50;78.50;;;;;;4996122;28;20211;-82
2023/09/06 12:24:04;;;;;;;5.43;4.50;;;28.50;78.60;;;;;;5001389;28;20550;-79
2023/09/06 12:26:29;;;;;;;7.20;5.37;;;28.50;75.00;;;;;;4998708;28;20183;-85
2023/09/06 12:28:55;;;;;;;10.27;5.40;;;28.40;75.30;;;;;;4996909;28;20291;-79
2023/09/06 12:31:21;;;;;;;6.20;5.23;;;29.60;79.70;;;;;;4994334;28;20224;-82
2023/09/06 12:33:49;;;;;;;8.27;4.27;;;28.40;77.80;;;;;;4998850;28;20696;-81
2023/09/06 12:36:17;;;;;;;6.00;5.40;;;28.30;79.20;;;;;;4994079;28;20181;-81
2023/09/06 12:38:42;;;;;;;7.73;5.43;;;28.50;76.90;;;;;;5000369;28;20454;-84
2023/09/06 12:41:08;;;;;;;7.40;5.73;;;28.70;75.10;;;;;;5003815;28;20523;-78
2023/09/06 12:43:36;;;;;;;5.40;4.90;;;28.80;75.80;;;;;;5004718;28;20209;-80
2023/09/06 12:46:05;;;;;;;6.40;5.20;;;28.70;73.30;;;;;;5001862;28;20620;-80
2023/09/06 12:48:31;;;;;;;8.00;4.80;;;;;;;;;;4998390;28;21482;-81
2023/09/06 12:50:57;;;;;;;4.70;4.30;;;28.80;74.70;;;;;;4995249;28;20455;-79
2023/09/06 12:53:23;;;;;;;8.97;5.30;;;28.90;75.10;;;;;;5001948;28;20460;-83
2023/09/06 12:55:48;;;;;;;7.53;5.00;;;29.80;76.90;;;;;;4999442;28;20165;-78
2023/09/06 12:58:14;;;;;;;12.20;5.57;;;29.10;70.90;;;;;;5013902;28;20190;-79
2023/09/06 13:00:41;;;;;;;5.20;4.70;;;29.20;72.60;;;;;;5005280;28;20553;-81
2023/09/06 13:03:07;;;;;;;6.37;4.30;;;;;;;;;;5003699;28;20188;-78
2023/09/06 13:05:33;;;;;;;6.53;5.47;;;29.00;70.70;;;;;;4986981;28;20479;-83
2023/09/06 13:08:02;;;;;;;5.70;4.93;;;29.00;71.40;;;;;;4994535;28;20499;-83
2023/09/06 13:10:29;;;;;;;4.90;4.40;;;29.10;71.90;;;;;;5000324;28;20179;-81
2023/09/06 13:12:54;;;;;;;5.17;4.60;;;29.20;72.30;;;;;;4999425;28;20449;-84
2023/09/06 13:15:20;;;;;;;5.10;4.60;;;29.20;70.40;;;;;;5000472;28;20453;-83
2023/09/06 13:17:45;;;;;;;8.37;4.73;;;29.30;70.90;;;;;;4997047;28;20998;-80
2023/09/06 13:20:12;;;;;;;5.60;5.10;;;;;;;;;;5004883;28;20190;-82
2023/09/06 13:22:38;;;;;;;4.77;4.30;;;29.60;68.50;;;;;;4987568;28;20198;-80
2023/09/06 13:25:06;;;;;;;6.13;5.27;;;29.80;67.10;;;;;;4987088;28;21145;-86
2023/09/06 13:27:32;;;;;;;6.97;4.77;;;29.50;63.30;;;;;;4987023;28;20448;-83
2023/09/06 13:29:58;;;;;;;6.53;5.20;;;29.30;62.70;;;;;;4989465;28;20448;-83
2023/09/06 13:32:25;;;;;;;5.70;4.37;;;29.30;63.40;;;;;;4985574;28;20446;-80
2023/09/06 13:34:52;;;;;;;4.43;4.00;;;29.30;59.60;;;;;;4997023;28;20513;-82
2023/09/06 13:37:18;;;;;;;5.30;4.70;;;29.10;59.60;;;;;;4995626;28;20445;-84
2023/09/06 13:39:44;;;;;;;5.83;4.53;;;29.10;63.90;;;;;;4995113;28;20888;-82
2023/09/06 13:42:09;;;;;;;5.50;4.70;;;29.10;63.00;;;;;;4987494;28;20461;-80
2023/09/06 13:44:35;;;;;;;5.43;4.00;;;29.20;63.10;;;;;;4989175;28;20222;-82
2023/09/06 13:47:01;;;;;;;5.03;3.77;;;29.20;63.80;;;;;;4990785;28;20175;-88
2023/09/06 13:49:27;;;;;;;4.70;4.17;;;29.30;60.30;;;;;;4992135;28;20630;-84
2023/09/06 13:51:53;;;;;;;4.70;4.30;;;29.40;59.00;;;;;;4996427;28;20431;-83
2023/09/06 13:54:18;;;;;;;4.87;4.07;;;29.30;59.10;;;;;;4994409;28;20574;-83
2023/09/06 13:56:49;;;;;;;5.83;3.50;;;29.10;60.20;;;;;;4999319;28;20509;-85
2023/09/06 13:59:17;;;;;;;6.00;4.43;;;29.10;62.80;;;;;;4993038;28;20182;-84
2023/09/06 14:01:43;;;;;;;6.97;4.10;;;29.10;65.00;;;;;;4989444;28;20468;-83
2023/09/06 14:04:09;;;;;;;5.07;4.33;;;29.00;64.80;;;;;;4992482;28;21292;-80
2023/09/06 14:06:34;;;;;;;9.33;4.10;;;29.10;64.00;;;;;;4983558;28;20185;-80
2023/09/06 14:09:00;;;;;;;6.67;5.40;;;29.10;63.10;;;;;;4991846;28;20187;-84
2023/09/06 14:11:26;;;;;;;6.20;4.67;;;29.20;65.60;;;;;;4994485;28;20241;-80
2023/09/06 14:13:52;;;;;;;4.10;3.70;;;29.20;62.90;;;;;;4989673;28;20211;-84
2023/09/06 14:16:18;;;;;;;5.33;3.77;;;29.20;61.90;;;;;;5005490;28;20499;-82
2023/09/06 14:18:43;;;;;;;5.10;4.60;;;29.30;61.00;;;;;;5002613;28;20447;-82
2023/09/06 14:21:09;;;;;;;4.20;3.80;;;29.20;63.50;;;;;;4999117;28;20214;-86
2023/09/06 14:23:34;;;;;;;5.23;4.40;;;29.30;64.40;;;;;;4995465;28;20215;-83
2023/09/06 14:26:01;;;;;;;5.47;3.60;;;29.40;62.60;;;;;;4990110;28;20189;-83
2023/09/06 14:28:27;;;;;;;4.20;3.80;;;;;;;;;;5000896;28;20191;-87
2023/09/06 14:30:53;;;;;;;5.50;4.10;;;29.10;59.50;;;;;;4997118;28;20464;-83